createdAt,value
2018-02-27T08:40:43.723Z,8.80
2018-02-27T08:43:13.386Z,9.60
2018-02-27T08:45:42.259Z,7.47
2018-02-27T08:48:10.528Z,8.57
2018-02-27T08:50:38.055Z,7.70
2018-02-27T08:53:06.331Z,9.00
2018-02-27T08:55:35.221Z,6.70
2018-02-27T08:58:04.080Z,7.07
2018-02-27T09:00:32.964Z,6.90
2018-02-27T09:03:01.819Z,6.67
2018-02-27T09:05:30.722Z,7.23
2018-02-27T09:07:59.583Z,6.13
2018-02-27T09:10:28.436Z,8.27
2018-02-27T09:12:57.303Z,7.50
2018-02-27T09:15:26.169Z,7.87
2018-02-27T09:17:55.042Z,7.17
2018-02-27T09:20:23.960Z,6.97
2018-02-27T09:22:52.795Z,6.97
2018-02-27T09:25:21.664Z,7.23
2018-02-27T09:27:50.551Z,7.47
2018-02-27T09:30:19.414Z,9.50
2018-02-27T09:32:48.298Z,7.97
2018-02-27T09:35:17.161Z,8.07
2018-02-27T09:37:46.030Z,6.20
2018-02-27T09:40:14.882Z,6.93
2018-02-27T09:42:43.756Z,6.83
2018-02-27T09:45:12.607Z,8.90
2018-02-27T09:47:41.482Z,7.00
2018-02-27T09:50:10.368Z,9.93
2018-02-27T09:52:39.228Z,6.63
2018-02-27T09:55:08.116Z,6.50
2018-02-27T09:57:36.966Z,7.07
2018-02-27T10:00:05.853Z,9.13
2018-02-27T10:02:34.720Z,6.90
2018-02-27T10:05:03.592Z,7.40
2018-02-27T10:07:32.457Z,7.63
2018-02-27T10:10:01.332Z,7.10
2018-02-27T10:12:30.191Z,7.73
2018-02-27T10:14:59.131Z,7.20
2018-02-27T10:17:27.982Z,8.47
2018-02-27T10:19:56.860Z,8.07
2018-02-27T10:22:25.716Z,6.60
2018-02-27T10:24:54.582Z,6.63
2018-02-27T10:27:23.459Z,7.60
2018-02-27T10:29:52.354Z,6.00
2018-02-27T10:32:21.220Z,8.03
2018-02-27T10:34:50.075Z,7.77
2018-02-27T10:37:18.959Z,8.67
2018-02-27T10:39:47.828Z,8.23
2018-02-27T10:42:16.707Z,7.10
2018-02-27T10:44:45.575Z,7.13
2018-02-27T10:47:14.451Z,7.73
2018-02-27T10:49:43.306Z,7.70
2018-02-27T10:52:12.183Z,7.70
2018-02-27T10:54:41.039Z,6.70
2018-02-27T10:57:09.961Z,7.30
2018-02-27T10:59:38.906Z,7.23
2018-02-27T11:02:07.815Z,6.70
2018-02-27T11:04:36.682Z,7.40
2018-02-27T11:07:05.600Z,7.27
2018-02-27T11:09:34.466Z,7.13
2018-02-27T11:12:03.324Z,7.43
2018-02-27T11:14:32.203Z,6.67
2018-02-27T11:17:01.071Z,6.70
2018-02-27T11:19:29.947Z,6.70
2018-02-27T11:21:58.799Z,6.40
2018-02-27T11:24:27.789Z,6.63
2018-02-27T11:26:56.653Z,6.63
2018-02-27T11:29:25.531Z,6.10
2018-02-27T11:31:54.390Z,6.43
2018-02-27T11:34:23.267Z,6.87
2018-02-27T11:36:52.123Z,5.90
2018-02-27T11:39:20.996Z,7.10
2018-02-27T11:41:49.867Z,6.47
2018-02-27T11:44:18.736Z,5.47
2018-02-27T11:46:47.603Z,5.77
2018-02-27T11:49:16.490Z,6.00
2018-02-27T11:51:45.346Z,7.20
2018-02-27T11:54:14.225Z,5.83
2018-02-27T11:56:43.101Z,7.10
2018-02-27T11:59:11.964Z,5.27
2018-02-27T12:01:40.843Z,6.77
2018-02-27T12:04:09.695Z,6.20
2018-02-27T12:06:38.610Z,6.73
2018-02-27T12:09:07.475Z,6.47
2018-02-27T12:11:36.344Z,6.80
2018-02-27T12:14:05.211Z,6.03
2018-02-27T12:16:34.095Z,5.50
2018-02-27T12:19:02.964Z,5.60
2018-02-27T12:21:31.857Z,6.27
2018-02-27T12:24:00.716Z,6.00
2018-02-27T12:26:29.588Z,6.27
2018-02-27T12:28:58.465Z,6.67
2018-02-27T12:31:27.330Z,5.70
2018-02-27T12:33:56.202Z,5.47
2018-02-27T12:36:25.068Z,6.10
2018-02-27T12:38:53.969Z,5.97
2018-02-27T12:41:22.831Z,6.30
2018-02-27T12:43:51.705Z,6.20
2018-02-27T12:46:20.563Z,5.97
2018-02-27T12:48:49.440Z,5.63
2018-02-27T12:51:18.296Z,5.33
2018-02-27T12:53:47.175Z,4.47
2018-02-27T12:56:16.025Z,5.43
2018-02-27T12:58:44.911Z,5.73
2018-02-27T13:01:13.764Z,5.90
2018-02-27T13:03:42.625Z,5.80
2018-02-27T13:06:11.500Z,5.40
2018-02-27T13:08:40.356Z,5.10
2018-02-27T13:11:09.239Z,5.07
2018-02-27T13:13:38.097Z,5.90
2018-02-27T13:16:06.985Z,5.27
2018-02-27T13:18:35.857Z,5.20
2018-02-27T13:21:04.735Z,6.10
2018-02-27T13:23:33.600Z,5.90
2018-02-27T13:26:02.487Z,6.20
2018-02-27T13:28:31.339Z,6.03
2018-02-27T13:31:00.229Z,5.00
2018-02-27T13:33:29.096Z,6.20
2018-02-27T13:35:57.979Z,6.97
2018-02-27T13:38:26.847Z,6.73
2018-02-27T13:40:55.734Z,6.73
2018-02-27T13:43:24.616Z,6.27
2018-02-27T13:45:53.462Z,6.13
2018-02-27T13:48:22.331Z,5.80
2018-02-27T13:50:51.195Z,6.20
2018-02-27T13:53:20.096Z,6.27
2018-02-27T13:55:48.947Z,5.70
2018-02-27T13:58:17.830Z,6.40
2018-02-27T14:00:46.679Z,6.50
2018-02-27T14:03:15.547Z,6.53
2018-02-27T14:05:44.439Z,5.90
2018-02-27T14:08:13.317Z,6.40
2018-02-27T14:10:42.167Z,6.50
2018-02-27T14:13:11.050Z,6.97
2018-02-27T14:15:39.934Z,7.27
2018-02-27T14:18:08.806Z,7.40
2018-02-27T14:20:37.669Z,7.33
2018-02-27T14:23:06.538Z,6.57
2018-02-27T14:25:35.403Z,7.00
2018-02-27T14:28:04.423Z,5.93
2018-02-27T14:30:33.143Z,6.13
2018-02-27T14:33:02.035Z,5.97
2018-02-27T14:35:30.886Z,6.10
2018-02-27T14:37:59.742Z,6.13
2018-02-27T14:40:28.633Z,7.17
2018-02-27T14:42:57.492Z,7.10
2018-02-27T14:45:26.374Z,6.03
2018-02-27T14:47:55.234Z,7.27
2018-02-27T14:50:24.099Z,6.40
2018-02-27T14:52:52.960Z,6.47
2018-02-27T14:55:28.369Z,7.87
2018-02-27T14:57:57.227Z,8.50
2018-02-27T15:00:26.105Z,7.03
2018-02-27T15:02:55.002Z,6.73
2018-02-27T15:05:23.861Z,7.00
2018-02-27T15:07:52.710Z,7.23
2018-02-27T15:10:21.575Z,7.53
2018-02-27T15:12:54.100Z,7.17
2018-02-27T15:15:22.981Z,7.43
2018-02-27T15:17:53.812Z,7.80
2018-02-27T15:20:22.692Z,7.87
2018-02-27T15:22:51.568Z,6.67
2018-02-27T15:25:20.462Z,6.30
2018-02-27T15:27:49.327Z,7.63
2018-02-27T15:30:18.204Z,8.00
2018-02-27T15:32:47.055Z,6.53
2018-02-27T15:35:15.923Z,7.17
2018-02-27T15:37:44.785Z,8.70
2018-02-27T15:40:13.660Z,7.30
2018-02-27T15:42:42.524Z,8.33
2018-02-27T15:45:11.436Z,8.43
2018-02-27T15:47:40.300Z,8.43
2018-02-27T15:50:09.198Z,8.33
2018-02-27T15:52:38.052Z,8.70
2018-02-27T15:55:06.907Z,7.70
2018-02-27T15:57:35.774Z,8.77
2018-02-27T16:00:04.629Z,8.97
2018-02-27T16:02:33.495Z,9.50
2018-02-27T16:05:02.348Z,9.13
2018-02-27T16:07:31.219Z,8.33
2018-02-27T16:10:00.102Z,9.10
2018-02-27T16:12:28.975Z,9.17
2018-02-27T16:14:57.835Z,8.37
2018-02-27T16:17:26.711Z,10.00
2018-02-27T16:19:55.568Z,8.80
2018-02-27T16:22:24.459Z,9.60
2018-02-27T16:24:53.351Z,9.40
2018-02-27T16:27:22.199Z,9.23
2018-02-27T16:29:51.077Z,9.33
2018-02-27T16:32:19.933Z,10.00
2018-02-27T16:34:48.821Z,9.70
2018-02-27T16:37:17.674Z,9.67
2018-02-27T16:39:46.559Z,10.17
2018-02-27T16:42:15.426Z,10.03
2018-02-27T16:44:44.336Z,10.20
2018-02-27T16:47:13.221Z,8.73
2018-02-27T16:49:42.161Z,9.27
2018-02-27T16:52:11.049Z,9.90
2018-02-27T16:54:39.910Z,10.10
2018-02-27T16:57:08.795Z,11.43
2018-02-27T16:59:37.727Z,10.33
2018-02-27T17:02:06.612Z,10.47
2018-02-27T17:04:35.480Z,10.27
2018-02-27T17:07:04.365Z,10.17
2018-02-27T17:09:33.268Z,10.50
2018-02-27T17:12:02.147Z,10.63
2018-02-27T17:14:31.055Z,10.80
2018-02-27T17:16:59.920Z,10.37
2018-02-27T17:19:28.788Z,10.40
2018-02-27T17:21:57.676Z,11.50
2018-02-27T17:24:26.541Z,11.10
2018-02-27T17:26:55.424Z,10.60
2018-02-27T17:29:24.301Z,11.30
2018-02-27T17:31:53.167Z,10.70
2018-02-27T17:34:22.028Z,10.07
2018-02-27T17:36:50.917Z,12.40
2018-02-27T17:39:19.946Z,11.00
2018-02-27T17:41:47.510Z,12.80
2018-02-27T17:44:15.024Z,10.53
2018-02-27T17:46:43.328Z,11.17
2018-02-27T17:49:10.853Z,11.57
2018-02-27T17:51:38.389Z,12.17
2018-02-27T17:54:05.905Z,11.90
2018-02-27T17:56:33.458Z,12.40
2018-02-27T17:59:01.732Z,12.43
2018-02-27T18:01:30.072Z,11.40
2018-02-27T18:03:57.599Z,12.73
2018-02-27T18:06:25.122Z,11.50
2018-02-27T18:08:54.011Z,10.87
2018-02-27T18:11:22.871Z,12.23
2018-02-27T18:13:51.746Z,11.77
2018-02-27T18:16:20.621Z,13.23
2018-02-27T18:18:49.507Z,12.60
2018-02-27T18:21:18.378Z,12.27
2018-02-27T18:23:47.250Z,11.80
2018-02-27T18:26:16.114Z,13.20
2018-02-27T18:28:44.990Z,13.60
2018-02-27T18:31:13.870Z,15.83
2018-02-27T18:33:42.772Z,12.30
2018-02-27T18:36:11.655Z,13.70
2018-02-27T18:38:40.534Z,14.13
2018-02-27T18:41:09.407Z,14.13
2018-02-27T18:43:38.365Z,13.20
2018-02-27T18:46:07.173Z,13.90
2018-02-27T18:48:36.039Z,15.37
2018-02-27T18:51:04.926Z,14.43
2018-02-27T18:53:33.804Z,15.73
2018-02-27T18:56:02.695Z,16.65
2018-02-27T18:58:31.569Z,14.63
2018-02-27T19:01:00.474Z,13.73
2018-02-27T19:03:29.338Z,13.73
2018-02-27T19:05:58.222Z,15.20
2018-02-27T19:08:27.113Z,14.80
2018-02-27T19:10:56.005Z,16.47
2018-02-27T19:13:24.872Z,14.50
2018-02-27T19:15:53.759Z,14.47
2018-02-27T19:18:22.627Z,15.37
2018-02-27T19:20:51.508Z,15.30
2018-02-27T19:23:20.387Z,16.17
2018-02-27T19:25:49.273Z,17.67
2018-02-27T19:28:18.171Z,16.73
2018-02-27T19:30:47.035Z,16.53
2018-02-27T19:33:15.924Z,17.57
2018-02-27T19:35:44.787Z,15.70
2018-02-27T19:38:13.675Z,17.10
2018-02-27T19:40:42.545Z,19.70
2018-02-27T19:43:11.429Z,17.07
2018-02-27T19:45:40.313Z,18.40
2018-02-27T19:48:09.193Z,17.30
2018-02-27T19:50:38.119Z,18.97
2018-02-27T19:53:06.996Z,17.57
2018-02-27T19:55:35.864Z,17.03
2018-02-27T19:58:04.788Z,16.37
2018-02-27T20:00:33.659Z,15.40
2018-02-27T20:03:02.634Z,16.70
2018-02-27T20:05:31.535Z,19.10
2018-02-27T20:08:00.442Z,19.20
2018-02-27T20:10:29.336Z,17.57
2018-02-27T20:12:58.210Z,18.30
2018-02-27T20:15:27.101Z,16.67
2018-02-27T20:18:01.614Z,20.10
2018-02-27T20:20:30.511Z,21.50
2018-02-27T20:23:05.177Z,18.43
2018-02-27T20:25:34.074Z,17.47
2018-02-27T20:28:02.939Z,19.30
2018-02-27T20:30:31.828Z,21.10
2018-02-27T20:33:00.694Z,19.37
2018-02-27T20:35:29.615Z,17.30
2018-02-27T20:37:58.486Z,16.93
2018-02-27T20:40:27.378Z,21.23
2018-02-27T20:42:56.242Z,17.87
2018-02-27T20:45:25.115Z,18.03
2018-02-27T20:47:53.975Z,17.73
2018-02-27T20:50:22.864Z,17.30
2018-02-27T20:52:51.736Z,19.03
2018-02-27T20:55:20.625Z,18.80
2018-02-27T20:57:49.495Z,17.53
2018-02-27T21:00:18.400Z,20.27
2018-02-27T21:02:47.268Z,16.40
2018-02-27T21:05:16.157Z,17.70
2018-02-27T21:07:45.056Z,16.43
2018-02-27T21:10:13.928Z,19.00
2018-02-27T21:12:42.811Z,17.03
2018-02-27T21:15:11.680Z,17.43
2018-02-27T21:17:40.573Z,16.97
2018-02-27T21:20:09.444Z,19.10
2018-02-27T21:22:38.337Z,18.50
2018-02-27T21:25:07.203Z,18.30
2018-02-27T21:27:36.086Z,18.40
2018-02-27T21:30:04.960Z,18.37
2018-02-27T21:32:33.840Z,18.90
2018-02-27T21:35:02.695Z,17.67
2018-02-27T21:37:31.583Z,22.63
2018-02-27T21:40:00.448Z,17.10
2018-02-27T21:42:29.336Z,20.00
2018-02-27T21:44:58.205Z,16.50
2018-02-27T21:47:27.102Z,16.13
2018-02-27T21:49:55.971Z,19.20
2018-02-27T21:52:24.832Z,18.57
2018-02-27T21:54:53.724Z,16.30
2018-02-27T21:57:22.583Z,17.50
2018-02-27T21:59:51.456Z,21.20
2018-02-27T22:02:20.323Z,17.47
2018-02-27T22:04:49.229Z,20.40
2018-02-27T22:07:18.088Z,16.97
2018-02-27T22:09:46.977Z,18.63
2018-02-27T22:12:15.844Z,17.70
2018-02-27T22:14:44.719Z,18.20
2018-02-27T22:17:13.588Z,17.57
2018-02-27T22:19:42.478Z,21.30
2018-02-27T22:22:11.355Z,20.20
2018-02-27T22:24:40.234Z,19.30
2018-02-27T22:27:09.121Z,17.10
2018-02-27T22:29:38.962Z,16.23
2018-02-27T22:32:08.535Z,20.27
2018-02-27T22:34:37.659Z,18.87
2018-02-27T22:37:06.870Z,19.97
2018-02-27T22:39:36.859Z,18.43
2018-02-27T22:42:05.786Z,20.03
2018-02-27T22:44:34.893Z,19.70
2018-02-27T22:47:05.488Z,17.90
2018-02-27T22:49:34.543Z,16.63
2018-02-27T22:52:04.564Z,18.53
2018-02-27T22:54:34.241Z,20.27
2018-02-27T22:57:03.268Z,22.90
2018-02-27T22:59:32.363Z,17.20
2018-02-27T23:04:36.722Z,19.07
2018-02-27T23:07:05.955Z,20.50
2018-02-27T23:09:35.173Z,17.47
2018-02-27T23:12:04.424Z,18.50
2018-02-27T23:14:34.281Z,18.87
2018-02-27T23:17:03.604Z,20.20
2018-02-27T23:19:33.753Z,21.50
2018-02-27T23:22:02.837Z,18.90
2018-02-27T23:24:32.699Z,18.70
2018-02-27T23:27:03.869Z,18.87
2018-02-27T23:29:33.916Z,19.20
2018-02-27T23:32:03.857Z,18.80
2018-02-27T23:34:34.072Z,17.43
2018-02-27T23:37:03.378Z,18.07
2018-02-27T23:39:32.620Z,17.23
2018-02-27T23:42:01.732Z,17.07
2018-02-27T23:44:32.943Z,16.50
2018-02-27T23:47:02.253Z,16.60
2018-02-27T23:49:31.429Z,17.60
2018-02-27T23:52:00.556Z,18.07
2018-02-27T23:54:29.658Z,18.33
2018-02-27T23:56:59.756Z,21.10
2018-02-27T23:59:30.128Z,18.07
